Wetterdaten: Woche 20.08.07 - 26.08.07 (KW34)
Datum Zeit Temperatur Luftfeuchte Luftdruck Niederschlag
20.08.2007 00:00 13,0 C 87 % 0 hPa 0,0 l/m
20.08.2007 01:00 12,3 C 89 % 0 hPa 0,0 l/m
20.08.2007 02:00 12,4 C 92 % 0 hPa 0,0 l/m
20.08.2007 03:00 13,1 C 94 % 0 hPa 0,0 l/m
20.08.2007 04:00 13,7 C 95 % 0 hPa 0,0 l/m
20.08.2007 05:00 13,7 C 96 % 0 hPa 0,0 l/m
20.08.2007 06:00 13,5 C 96 % 0 hPa 0,0 l/m
20.08.2007 07:00 13,6 C 94 % 0 hPa 0,0 l/m
20.08.2007 08:00 13,9 C 94 % 0 hPa 0,0 l/m
20.08.2007 09:00 14,5 C 93 % 0 hPa 0,0 l/m
20.08.2007 10:00 15,1 C 88 % 0 hPa 1,0 l/m
20.08.2007 11:00 15,8 C 79 % 0 hPa 0,0 l/m
20.08.2007 12:00 16,2 C 72 % 0 hPa 0,0 l/m
20.08.2007 13:00 16,5 C 70 % 0 hPa 0,0 l/m
20.08.2007 14:00 16,5 C 72 % 0 hPa 0,0 l/m
20.08.2007 15:00 15,8 C 76 % 0 hPa 0,0 l/m
20.08.2007 16:00 14,7 C 81 % 0 hPa 5,0 l/m
20.08.2007 17:00 14,1 C 87 % 0 hPa 1,0 l/m
20.08.2007 18:00 13,9 C 90 % 0 hPa 1,0 l/m
20.08.2007 19:00 13,8 C 91 % 0 hPa 0,0 l/m
20.08.2007 20:00 13,5 C 91 % 0 hPa 0,0 l/m
20.08.2007 21:00 13,2 C 93 % 0 hPa 0,0 l/m
20.08.2007 22:00 13,1 C 94 % 0 hPa 0,0 l/m
20.08.2007 23:00 13,0 C 94 % 0 hPa 0,0 l/m
21.08.2007 00:00 12,9 C 95 % 0 hPa 0,0 l/m
21.08.2007 01:00 12,9 C 96 % 0 hPa 0,0 l/m
21.08.2007 02:00 12,9 C 96 % 0 hPa 0,0 l/m
21.08.2007 03:00 12,8 C 97 % 0 hPa 0,0 l/m
21.08.2007 04:00 12,9 C 97 % 0 hPa 0,0 l/m
21.08.2007 05:00 13,0 C 97 % 0 hPa 0,0 l/m
21.08.2007 06:00 13,0 C 97 % 0 hPa 0,0 l/m
21.08.2007 07:00 13,1 C 97 % 0 hPa 0,0 l/m
21.08.2007 08:00 13,2 C 96 % 0 hPa 0,0 l/m
21.08.2007 09:00 13,6 C 96 % 0 hPa 0,0 l/m
21.08.2007 10:00 14,5 C 93 % 0 hPa 0,0 l/m
21.08.2007 11:00 15,6 C 83 % 0 hPa 0,0 l/m
21.08.2007 12:00 17,0 C 71 % 0 hPa 0,0 l/m
21.08.2007 13:00 17,7 C 66 % 0 hPa 0,0 l/m
21.08.2007 14:00 18,1 C 61 % 0 hPa 0,0 l/m
21.08.2007 15:00 17,9 C 63 % 0 hPa 0,0 l/m
21.08.2007 16:00 17,3 C 70 % 0 hPa 0,0 l/m
21.08.2007 17:00 17,3 C 71 % 0 hPa 0,0 l/m
21.08.2007 18:00 17,4 C 69 % 0 hPa 0,0 l/m
21.08.2007 19:00 16,9 C 72 % 0 hPa 0,0 l/m
21.08.2007 20:00 16,1 C 79 % 0 hPa 0,0 l/m
21.08.2007 21:00 15,2 C 81 % 0 hPa 0,0 l/m
21.08.2007 22:00 14,5 C 82 % 0 hPa 0,0 l/m
21.08.2007 23:00 14,4 C 87 % 0 hPa 0,0 l/m
22.08.2007 00:00 14,4 C 89 % 0 hPa 0,0 l/m
22.08.2007 01:00 14,1 C 91 % 0 hPa 0,0 l/m
22.08.2007 02:00 13,7 C 93 % 0 hPa 0,0 l/m
22.08.2007 03:00 13,4 C 94 % 0 hPa 0,0 l/m
22.08.2007 04:00 12,8 C 94 % 0 hPa 0,0 l/m
22.08.2007 05:00 12,4 C 94 % 0 hPa 0,0 l/m
22.08.2007 06:00 12,5 C 94 % 0 hPa 0,0 l/m
22.08.2007 07:00 12,7 C 93 % 0 hPa 0,0 l/m
22.08.2007 08:00 13,5 C 91 % 0 hPa 0,0 l/m
22.08.2007 09:00 15,3 C 77 % 0 hPa 0,0 l/m
22.08.2007 10:00 15,9 C 65 % 0 hPa 0,0 l/m
22.08.2007 11:00 17,0 C 59 % 0 hPa 0,0 l/m
22.08.2007 12:00 18,6 C 50 % 0 hPa 0,0 l/m
22.08.2007 13:00 19,1 C 48 % 0 hPa 0,0 l/m
22.08.2007 14:00 19,8 C 47 % 0 hPa 0,0 l/m
22.08.2007 15:00 20,4 C 42 % 0 hPa 0,0 l/m
22.08.2007 16:00 21,3 C 39 % 0 hPa 0,0 l/m
22.08.2007 17:00 21,0 C 40 % 0 hPa 0,0 l/m
22.08.2007 18:00 21,1 C 42 % 0 hPa 0,0 l/m
22.08.2007 19:00 19,5 C 49 % 0 hPa 0,0 l/m
22.08.2007 20:00 16,8 C 63 % 0 hPa 0,0 l/m
22.08.2007 21:00 15,3 C 69 % 0 hPa 0,0 l/m
22.08.2007 22:00 14,8 C 73 % 0 hPa 0,0 l/m
22.08.2007 23:00 14,7 C 75 % 0 hPa 0,0 l/m
23.08.2007 00:00 14,5 C 79 % 0 hPa 0,0 l/m
23.08.2007 01:00 14,3 C 81 % 0 hPa 0,0 l/m
23.08.2007 02:00 14,4 C 82 % 0 hPa 0,0 l/m
23.08.2007 03:00 14,5 C 82 % 0 hPa 0,0 l/m
23.08.2007 04:00 14,3 C 81 % 0 hPa 5,0 l/m
23.08.2007 05:00 13,7 C 88 % 0 hPa 3,0 l/m
23.08.2007 06:00 13,2 C 90 % 0 hPa 0,0 l/m
23.08.2007 07:00 13,3 C 93 % 0 hPa 0,0 l/m
23.08.2007 08:00 14,3 C 93 % 0 hPa 0,0 l/m
23.08.2007 09:00 16,6 C 84 % 0 hPa 0,0 l/m
23.08.2007 10:00 18,8 C 66 % 0 hPa 0,0 l/m
23.08.2007 11:00 19,5 C 60 % 0 hPa 0,0 l/m
23.08.2007 12:00 20,3 C 49 % 0 hPa 0,0 l/m
23.08.2007 13:00 21,1 C 43 % 0 hPa 0,0 l/m
23.08.2007 14:00 22,1 C 41 % 0 hPa 0,0 l/m
23.08.2007 15:00 22,4 C 39 % 0 hPa 0,0 l/m
23.08.2007 16:00 22,3 C 39 % 0 hPa 0,0 l/m
23.08.2007 17:00 22,5 C 38 % 0 hPa 0,0 l/m
23.08.2007 18:00 23,2 C 35 % 0 hPa 0,0 l/m
23.08.2007 19:00 21,0 C 48 % 0 hPa 0,0 l/m
23.08.2007 20:00 17,7 C 57 % 0 hPa 0,0 l/m
23.08.2007 21:00 15,7 C 67 % 0 hPa 0,0 l/m
23.08.2007 22:00 14,6 C 74 % 0 hPa 0,0 l/m
23.08.2007 23:00 14,1 C 80 % 0 hPa 0,0 l/m
24.08.2007 00:00 13,8 C 85 % 0 hPa 0,0 l/m
24.08.2007 01:00 13,3 C 86 % 0 hPa 0,0 l/m
24.08.2007 02:00 12,6 C 89 % 0 hPa 0,0 l/m
24.08.2007 03:00 12,0 C 91 % 0 hPa 0,0 l/m
24.08.2007 04:00 11,4 C 92 % 0 hPa 0,0 l/m
24.08.2007 05:00 11,1 C 93 % 0 hPa 0,0 l/m
24.08.2007 06:00 10,8 C 94 % 0 hPa 0,0 l/m
24.08.2007 07:00 11,4 C 95 % 0 hPa 0,0 l/m
24.08.2007 08:00 14,8 C 93 % 0 hPa 0,0 l/m
24.08.2007 09:00 18,1 C 73 % 0 hPa 0,0 l/m
24.08.2007 10:00 20,5 C 58 % 0 hPa 0,0 l/m
24.08.2007 11:00 22,0 C 48 % 0 hPa 0,0 l/m
24.08.2007 12:00 22,8 C 42 % 0 hPa 0,0 l/m
24.08.2007 13:00 23,6 C 36 % 0 hPa 0,0 l/m
24.08.2007 14:00 24,8 C 32 % 0 hPa 0,0 l/m
24.08.2007 15:00 25,5 C 32 % 0 hPa 0,0 l/m
24.08.2007 16:00 25,2 C 31 % 0 hPa 0,0 l/m
24.08.2007 17:00 24,6 C 33 % 0 hPa 0,0 l/m
24.08.2007 18:00 24,0 C 34 % 0 hPa 0,0 l/m
24.08.2007 19:00 22,5 C 42 % 0 hPa 0,0 l/m
24.08.2007 20:00 19,5 C 55 % 0 hPa 0,0 l/m
24.08.2007 21:00 17,6 C 64 % 0 hPa 0,0 l/m
24.08.2007 22:00 16,5 C 71 % 0 hPa 0,0 l/m
24.08.2007 23:00 15,9 C 75 % 0 hPa 0,0 l/m
25.08.2007 00:00 15,3 C 78 % 0 hPa 0,0 l/m
25.08.2007 01:00 14,9 C 80 % 0 hPa 0,0 l/m
25.08.2007 02:00 14,6 C 81 % 0 hPa 0,0 l/m
25.08.2007 03:00 14,1 C 83 % 0 hPa 0,0 l/m
25.08.2007 04:00 13,8 C 84 % 0 hPa 0,0 l/m
25.08.2007 05:00 13,1 C 85 % 0 hPa 0,0 l/m
25.08.2007 06:00 12,4 C 88 % 0 hPa 0,0 l/m
25.08.2007 07:00 12,7 C 90 % 0 hPa 0,0 l/m
25.08.2007 08:00 16,0 C 84 % 0 hPa 0,0 l/m
25.08.2007 09:00 19,7 C 66 % 0 hPa 0,0 l/m
25.08.2007 10:00 22,1 C 55 % 0 hPa 0,0 l/m
25.08.2007 11:00 23,9 C 44 % 0 hPa 0,0 l/m
25.08.2007 12:00 24,5 C 40 % 0 hPa 0,0 l/m
25.08.2007 13:00 25,0 C 36 % 0 hPa 0,0 l/m
25.08.2007 14:00 26,3 C 32 % 0 hPa 0,0 l/m
25.08.2007 15:00 27,1 C 31 % 0 hPa 0,0 l/m
25.08.2007 16:00 27,1 C 30 % 0 hPa 0,0 l/m
25.08.2007 17:00 26,5 C 31 % 0 hPa 0,0 l/m
25.08.2007 18:00 26,8 C 33 % 0 hPa 0,0 l/m
25.08.2007 19:00 24,0 C 44 % 0 hPa 0,0 l/m
25.08.2007 20:00 20,7 C 52 % 0 hPa 0,0 l/m
25.08.2007 21:00 18,7 C 61 % 0 hPa 0,0 l/m
25.08.2007 22:00 17,1 C 67 % 0 hPa 0,0 l/m
25.08.2007 23:00 16,2 C 72 % 0 hPa 0,0 l/m
26.08.2007 00:00 15,5 C 78 % 0 hPa 0,0 l/m
26.08.2007 01:00 15,0 C 81 % 0 hPa 0,0 l/m
26.08.2007 02:00 14,4 C 83 % 0 hPa 0,0 l/m
26.08.2007 03:00 13,9 C 86 % 0 hPa 0,0 l/m
26.08.2007 04:00 13,3 C 88 % 0 hPa 0,0 l/m
26.08.2007 05:00 12,8 C 90 % 0 hPa 0,0 l/m
26.08.2007 06:00 12,3 C 91 % 0 hPa 0,0 l/m
26.08.2007 07:00 13,0 C 93 % 0 hPa 0,0 l/m
26.08.2007 08:00 16,1 C 87 % 0 hPa 0,0 l/m
26.08.2007 09:00 19,3 C 74 % 0 hPa 0,0 l/m
26.08.2007 10:00 22,0 C 62 % 0 hPa 0,0 l/m
26.08.2007 11:00 24,4 C 51 % 0 hPa 0,0 l/m
26.08.2007 12:00 25,4 C 47 % 0 hPa 0,0 l/m
26.08.2007 13:00 25,6 C 47 % 0 hPa 0,0 l/m
26.08.2007 14:00 27,1 C 38 % 0 hPa 0,0 l/m
26.08.2007 15:00 27,8 C 31 % 0 hPa 0,0 l/m
26.08.2007 16:00 27,0 C 32 % 0 hPa 0,0 l/m
26.08.2007 17:00 26,9 C 33 % 0 hPa 0,0 l/m
26.08.2007 18:00 26,2 C 34 % 0 hPa 0,0 l/m
26.08.2007 19:00 23,6 C 44 % 0 hPa 0,0 l/m
26.08.2007 20:00 20,9 C 56 % 0 hPa 0,0 l/m
26.08.2007 21:00 19,3 C 65 % 0 hPa 0,0 l/m
26.08.2007 22:00 18,5 C 69 % 0 hPa 0,0 l/m
26.08.2007 23:00 17,8 C 71 % 0 hPa 0,0 l/m
Min-Datum _ 24.08.07 26.08.07 20.08.07 -
_ Min-Zeit 06:26 15:42 00:00 -
Minimum _ 10,7 C 29 % 0 hPa -
Max-Datum _ 26.08.07 21.08.07 20.08.07 20.08.07
_ Max-Zeit 15:41 03:22 00:00 16:35
Maximum _ 28,2 C 97 % 0 hPa 5,0 l/m
Durchschnitt _ 17,2 C 71 % 0 hPa #16,0 l/m

Durchschnitt Minimum Temp.16,8 C
Durchschnitt Maximum Temp.17,7 C